Time;durP1;ratioP1;P1;durP2;ratioP2;P2;SDS_P1;SDS_P2;PMS_P1;PMS_P2;Temp;Humidity;BMP_temperature;BMP_pressure;BME280_temperature;BME280_humidity;BME280_pressure;Samples;Min_cycle;Max_cycle;Signal;HPM_P1;HPM_P2
2023/12/05 00:01:29;;;;;;;30.48;13.07;;;;;;;2.38;100.00;98477.47;12197677;19;20011;-80
2023/12/05 00:05:31;;;;;;;23.73;11.35;;;;;;;2.37;100.00;98482.09;12214225;19;20093;-80
2023/12/05 00:09:33;;;;;;;27.42;12.35;;;;;;;2.38;100.00;98481.06;12190235;19;20022;-81
2023/12/05 00:13:35;;;;;;;21.70;11.80;;;;;;;2.44;100.00;98476.56;12210647;19;20023;-81
2023/12/05 00:17:43;;;;;;;25.20;10.55;;;;;;;2.47;100.00;98459.81;12211003;19;20028;-81
2023/12/05 00:21:45;;;;;;;20.70;9.90;;;;;;;2.55;100.00;98461.34;12188555;19;20342;-80
2023/12/05 00:25:47;;;;;;;19.50;9.65;;;;;;;2.63;100.00;98459.16;12209485;19;20374;-81
2023/12/05 00:29:49;;;;;;;28.35;10.15;;;;;;;2.70;100.00;98461.75;12206462;19;20014;-81
2023/12/05 00:33:51;;;;;;;21.10;9.97;;;;;;;2.70;100.00;98462.59;12185165;19;20014;-82
2023/12/05 00:37:53;;;;;;;19.23;9.60;;;;;;;2.74;100.00;98454.81;12205315;19;20074;-82
2023/12/05 00:41:59;;;;;;;21.30;9.73;;;;;;;2.80;100.00;98450.34;12206672;19;20277;-81
2023/12/05 00:46:02;;;;;;;20.55;9.68;;;;;;;2.86;100.00;98441.25;12180670;19;20508;-80
2023/12/05 00:50:05;;;;;;;21.88;10.98;;;;;;;2.87;100.00;98451.88;12206780;19;20098;-79
2023/12/05 00:54:09;;;;;;;19.85;9.70;;;;;;;2.86;100.00;98458.38;12195593;19;20027;-79
2023/12/05 00:58:13;;;;;;;23.30;9.75;;;;;;;2.88;100.00;98452.69;12178151;19;20003;-79
2023/12/05 01:02:15;;;;;;;20.20;9.63;;;;;;;2.89;100.00;98444.31;12198473;19;20006;-79
2023/12/05 01:06:18;;;;;;;21.92;9.30;;;;;;;2.94;100.00;98447.19;12199360;19;20006;-79
2023/12/05 01:10:21;;;;;;;19.90;9.77;;;;;;;2.99;100.00;98451.91;12179735;19;20011;-79
2023/12/05 01:14:23;;;;;;;21.75;10.02;;;;;;;3.06;100.00;98458.06;12194873;19;20011;-81
2023/12/05 01:18:28;;;;;;;20.40;9.05;;;;;;;3.20;100.00;98459.50;12197376;19;20457;-79
2023/12/05 01:22:30;;;;;;;21.02;8.52;;;;;;;3.36;100.00;98459.84;12176435;19;20047;-81
2023/12/05 01:26:31;;;;;;;21.60;9.65;;;;;;;3.48;100.00;98460.72;12197651;19;20142;-80
2023/12/05 01:30:33;;;;;;;21.42;9.60;;;;;;;3.58;100.00;98452.75;12178922;19;20007;-80
2023/12/05 01:34:35;;;;;;;22.13;9.45;;;;;;;3.63;100.00;98452.88;12194250;19;20007;-80
2023/12/05 01:38:39;;;;;;;17.65;8.60;;;;;;;3.71;100.00;98459.84;12197144;19;20015;-81
2023/12/05 01:42:40;;;;;;;17.65;8.00;;;;;;;3.74;100.00;98456.66;12180494;19;20022;-80
2023/12/05 01:46:44;;;;;;;20.60;8.02;;;;;;;3.81;100.00;98451.09;12205557;19;20006;-81
2023/12/05 01:50:46;;;;;;;16.38;7.80;;;;;;;3.88;100.00;98462.69;12201742;19;20019;-81
2023/12/05 01:54:48;;;;;;;15.35;7.53;;;;;;;3.97;100.00;98452.25;12166610;19;19999;-81
2023/12/05 01:58:50;;;;;;;15.43;6.70;;;;;;;4.06;100.00;98462.53;12195510;19;20011;-82
2023/12/05 02:02:55;;;;;;;15.75;7.10;;;;;;;4.16;100.00;98451.00;12195250;19;20039;-81
2023/12/05 02:06:59;;;;;;;12.27;4.85;;;;;;;4.28;100.00;98451.81;12174155;19;20010;-80
2023/12/05 02:11:00;;;;;;;8.85;4.63;;;;;;;4.50;100.00;98451.94;12193816;19;20134;-80
2023/12/05 02:15:07;;;;;;;10.95;5.07;;;;;;;4.67;100.00;98445.69;12225108;19;20347;-81
2023/12/05 02:19:30;;;;;;;7.03;4.22;;;;;;;4.80;100.00;98445.41;12178056;19;20079;-79
2023/12/05 02:23:53;;;;;;;9.57;5.30;;;;;;;4.92;100.00;98443.44;12192164;19;20484;-79
2023/12/05 02:28:03;;;;;;;9.77;5.07;;;;;;;4.92;100.00;98437.16;12178303;19;20046;-78
2023/12/05 02:32:05;;;;;;;11.40;5.13;;;;;;;4.98;100.00;98430.69;12211994;19;20007;-77
2023/12/05 02:36:15;;;;;;;11.90;4.57;;;;;;;5.03;100.00;98428.88;12210890;19;20038;-78
2023/12/05 02:40:32;;;;;;;12.07;5.03;;;;;;;5.14;100.00;98426.31;12197349;19;20039;-79
2023/12/05 02:44:48;;;;;;;11.25;4.80;;;;;;;5.09;100.00;98427.06;12204844;19;20036;-78
2023/12/05 02:48:52;;;;;;;12.35;4.75;;;;;;;5.14;100.00;98423.56;12188193;19;20016;-78
2023/12/05 02:52:54;;;;;;;;;;;;;;;5.16;100.00;98415.97;12209608;19;20107;-78
2023/12/05 02:56:55;;;;;;;8.05;4.10;;;;;;;5.21;100.00;98425.06;12199401;19;19911;-79
2023/12/05 03:01:00;;;;;;;8.55;4.38;;;;;;;5.18;100.00;98424.75;12174271;19;20743;-81
2023/12/05 03:05:03;;;;;;;8.65;4.28;;;;;;;5.24;100.00;98421.03;12192633;19;20019;-79
2023/12/05 03:09:07;;;;;;;9.43;4.32;;;;;;;5.36;100.00;98429.94;12195334;19;20014;-80
2023/12/05 03:13:09;;;;;;;9.55;4.43;;;;;;;5.44;100.00;98426.81;12171529;19;20030;-77
2023/12/05 03:17:13;;;;;;;11.45;3.97;;;;;;;5.41;100.00;98430.03;12196082;19;20018;-80
2023/12/05 03:21:17;;;;;;;8.50;4.23;;;;;;;5.55;100.00;98416.00;12190538;19;20018;-79
2023/12/05 03:25:19;;;;;;;9.98;4.22;;;;;;;5.55;100.00;98430.50;12170073;19;20030;-81
2023/12/05 03:29:21;;;;;;;10.77;4.82;;;;;;;5.56;100.00;98431.31;12188463;19;20011;-79
2023/12/05 03:33:23;;;;;;;9.15;5.13;;;;;;;5.60;100.00;98421.56;12183641;19;20010;-81
2023/12/05 03:37:26;;;;;;;8.30;3.90;;;;;;;5.60;100.00;98421.56;12182007;19;20022;-79
2023/12/05 03:41:28;;;;;;;10.40;4.27;;;;;;;5.64;100.00;98420.78;12203936;19;20379;-80
2023/12/05 03:45:30;;;;;;;4.97;2.85;;;;;;;5.61;100.00;98423.19;12178885;19;20381;-80
2023/12/05 03:49:41;;;;;;;7.73;3.97;;;;;;;5.60;100.00;98427.03;12225410;19;20014;-77
2023/12/05 03:53:45;;;;;;;11.05;4.53;;;;;;;5.56;100.00;98426.72;12248102;19;20078;-80
2023/12/05 03:57:47;;;;;;;11.50;5.47;;;;;;;5.48;100.00;98425.22;12231353;19;19998;-78
2023/12/05 04:01:49;;;;;;;11.57;4.57;;;;;;;5.51;100.00;98434.00;12248669;19;20003;-81
2023/12/05 04:05:51;;;;;;;11.70;4.73;;;;;;;5.49;100.00;98437.78;12209107;19;20480;-81
2023/12/05 04:09:54;;;;;;;9.90;4.20;;;;;;;5.46;100.00;98432.81;12187986;19;20017;-78
2023/12/05 04:14:00;;;;;;;6.38;3.63;;;;;;;5.52;100.00;98441.09;12197925;19;20354;-83
2023/12/05 04:18:03;;;;;;;8.57;3.75;;;;;;;5.49;100.00;98443.25;12202196;19;20023;-81
2023/12/05 04:22:10;;;;;;;7.65;3.42;;;;;;;5.61;100.00;98448.63;12178970;19;20021;-81
2023/12/05 04:26:21;;;;;;;6.43;3.85;;;;;;;5.76;100.00;98437.06;12195487;19;20028;-78
2023/12/05 04:30:34;;;;;;;8.60;3.53;;;;;;;5.86;100.00;98439.97;12185115;19;20726;-81
2023/12/05 04:34:44;;;;;;;7.72;3.58;;;;;;;6.07;100.00;98440.28;12197972;19;20654;-80
2023/12/05 04:38:46;;;;;;;4.30;2.88;;;;;;;6.02;100.00;98430.09;12199965;19;20084;-81
2023/12/05 04:42:49;;;;;;;5.80;3.05;;;;;;;6.19;100.00;98435.50;12178162;19;20368;-80
2023/12/05 04:46:52;;;;;;;5.82;2.90;;;;;;;6.29;100.00;98446.53;12196110;19;20020;-81
2023/12/05 04:50:56;;;;;;;6.13;2.88;;;;;;;6.35;100.00;98433.75;12198831;19;20357;-80
2023/12/05 04:54:58;;;;;;;5.57;2.83;;;;;;;6.43;100.00;98430.56;12173936;19;20046;-81
2023/12/05 04:59:01;;;;;;;5.50;2.72;;;;;;;6.50;100.00;98428.44;12196697;19;20006;-80
2023/12/05 05:03:04;;;;;;;6.15;2.78;;;;;;;6.51;100.00;98437.47;12197930;19;20031;-80
2023/12/05 05:07:07;;;;;;;6.90;3.03;;;;;;;6.54;100.00;98434.22;12178422;19;20009;-80
2023/12/05 05:11:13;;;;;;;6.60;2.30;;;;;;;6.60;100.00;98441.41;12197672;19;20023;-83
2023/12/05 05:15:21;;;;;;;4.20;2.00;;;;;;;6.61;100.00;98443.09;12198804;19;20016;-82
2023/12/05 05:19:23;;;;;;;6.23;2.33;;;;;;;6.79;100.00;98450.94;12175312;19;20353;-81
2023/12/05 05:23:25;;;;;;;5.82;2.15;;;;;;;6.82;100.00;98444.13;12203346;19;20018;-80
2023/12/05 05:27:28;;;;;;;6.25;1.80;;;;;;;6.81;100.00;98437.81;12238225;19;20015;-84
2023/12/05 05:31:31;;;;;;;4.90;1.70;;;;;;;6.92;100.00;98449.69;12181229;19;20006;-81
2023/12/05 05:35:34;;;;;;;7.28;1.95;;;;;;;6.90;100.00;98451.88;12197353;19;20002;-83
2023/12/05 05:39:39;;;;;;;5.63;2.08;;;;;;;6.95;100.00;98454.63;12177484;19;20516;-82
2023/12/05 05:43:41;;;;;;;3.93;1.90;;;;;;;6.89;100.00;98441.97;12197066;19;21621;-82
2023/12/05 05:47:44;;;;;;;;;;;;;;;6.97;100.00;98457.13;12198520;19;20022;-82
2023/12/05 05:51:48;;;;;;;3.92;1.98;;;;;;;6.93;100.00;98445.03;12176234;19;19972;-80
2023/12/05 05:55:50;;;;;;;4.28;1.95;;;;;;;6.88;100.00;98455.94;12199228;19;20010;-81
2023/12/05 05:59:52;;;;;;;4.82;2.47;;;;;;;6.92;100.00;98455.16;12197414;19;20472;-80
2023/12/05 06:03:57;;;;;;;5.07;2.05;;;;;;;6.92;100.00;98457.06;12172980;19;20494;-82
2023/12/05 06:08:00;;;;;;;5.88;1.80;;;;;;;6.83;100.00;98462.19;12199682;19;20007;-83
2023/12/05 06:12:04;;;;;;;6.60;2.47;;;;;;;6.86;100.00;98464.41;12198998;19;20031;-83
2023/12/05 06:16:07;;;;;;;7.40;2.65;;;;;;;6.83;100.00;98470.41;12173338;19;20078;-82
2023/12/05 06:20:09;;;;;;;4.60;2.33;;;;;;;6.88;100.00;98477.84;12197485;19;20031;-82
2023/12/05 06:24:11;;;;;;;3.30;1.77;;;;;;;6.85;100.00;98477.28;12196949;19;20022;-85
2023/12/05 06:28:15;;;;;;;5.40;2.33;;;;;;;6.95;100.00;98473.81;12180017;19;20010;-81
2023/12/05 06:32:20;;;;;;;5.20;1.67;;;;;;;6.96;100.00;98472.75;12199551;19;20006;-84
2023/12/05 06:36:21;;;;;;;3.58;1.70;;;;;;;7.01;100.00;98480.16;12194138;19;20002;-83
2023/12/05 06:40:24;;;;;;;4.32;1.70;;;;;;;7.03;100.00;98484.31;12174531;19;20490;-84
2023/12/05 06:44:26;;;;;;;4.88;1.92;;;;;;;7.07;100.00;98493.63;12198258;19;20015;-86
2023/12/05 06:48:28;;;;;;;4.57;1.93;;;;;;;7.05;100.00;98492.28;12194234;19;20003;-86
2023/12/05 06:52:31;;;;;;;4.38;1.88;;;;;;;7.10;100.00;98500.53;12197720;19;20032;-84
2023/12/05 06:56:39;;;;;;;4.47;1.77;;;;;;;7.01;100.00;98496.59;12211852;19;20014;-84
2023/12/05 07:01:02;;;;;;;3.57;1.83;;;;;;;7.02;100.00;98490.88;12216286;19;20025;-83
2023/12/05 07:05:10;;;;;;;3.28;1.27;;;;;;;7.06;100.00;98510.34;12250088;19;20082;-84
2023/12/05 07:09:33;;;;;;;4.73;1.77;;;;;;;7.08;100.00;98519.16;12258308;19;20010;-84
2023/12/05 07:13:38;;;;;;;5.88;1.65;;;;;;;7.15;100.00;98519.75;12213061;19;20026;-85
2023/12/05 07:17:41;;;;;;;4.80;1.52;;;;;;;7.18;100.00;98524.72;12231159;19;20066;-81
2023/12/05 07:21:43;;;;;;;1.47;1.00;;;;;;;7.27;100.00;98534.13;12194122;19;20026;-84
2023/12/05 07:25:45;;;;;;;4.88;1.17;;;;;;;7.33;100.00;98528.69;12214791;19;20034;-84
2023/12/05 07:29:47;;;;;;;3.28;1.35;;;;;;;7.40;100.00;98532.84;12220529;19;20011;-82
2023/12/05 07:33:48;;;;;;;4.20;1.20;;;;;;;7.36;100.00;98534.47;12191287;19;20136;-83
2023/12/05 07:37:51;;;;;;;3.78;1.40;;;;;;;7.31;100.00;98534.41;12213744;19;20018;-83
2023/12/05 07:41:54;;;;;;;4.70;1.50;;;;;;;7.23;100.00;98530.25;12213777;19;20359;-83
2023/12/05 07:45:58;;;;;;;4.88;1.50;;;;;;;7.19;100.00;98537.31;12189819;19;20023;-84
2023/12/05 07:50:01;;;;;;;6.88;1.73;;;;;;;7.19;100.00;98548.28;12209679;19;20003;-83
2023/12/05 07:54:05;;;;;;;6.93;2.00;;;;;;;7.04;100.00;98556.34;12211611;19;20002;-87
2023/12/05 07:58:09;;;;;;;5.05;1.92;;;;;;;7.08;100.00;98558.31;12187055;19;20013;-82
2023/12/05 08:02:12;;;;;;;;;;;;;;;7.12;100.00;98558.63;12207084;19;20003;-82
2023/12/05 08:06:13;;;;;;;2.15;1.23;;;;;;;7.14;100.00;98567.41;12211193;19;19922;-84
2023/12/05 08:10:17;;;;;;;5.53;1.50;;;;;;;7.23;100.00;98579.56;12189792;19;20006;-83
2023/12/05 08:14:19;;;;;;;5.20;1.60;;;;;;;7.25;100.00;98571.06;12210461;19;20002;-84
2023/12/05 08:18:20;;;;;;;2.40;1.15;;;;;;;7.33;100.00;98572.53;12216097;19;20106;-83
2023/12/05 08:22:25;;;;;;;2.58;1.35;;;;;;;7.38;100.00;98578.91;12190132;19;20010;-84
2023/12/05 08:26:28;;;;;;;;;;;;;;;7.51;100.00;98572.97;12210977;19;20003;-83
2023/12/05 08:30:30;;;;;;;5.33;0.80;;;;;;;7.63;100.00;98578.28;12190484;19;19914;-82
2023/12/05 08:34:32;;;;;;;1.90;0.83;;;;;;;7.72;100.00;98579.47;12213192;19;20078;-85
2023/12/05 08:38:35;;;;;;;1.43;0.90;;;;;;;7.93;100.00;98574.16;12244781;19;20039;-82
2023/12/05 08:42:39;;;;;;;1.83;0.77;;;;;;;8.09;100.00;98584.16;12208448;19;20006;-84
2023/12/05 08:46:42;;;;;;;2.25;0.85;;;;;;;8.22;100.00;98583.69;12206876;19;20015;-84
2023/12/05 08:50:44;;;;;;;6.37;1.67;;;;;;;8.40;100.00;98585.19;12206620;19;20091;-84
2023/12/05 08:54:46;;;;;;;1.92;0.65;;;;;;;8.55;100.00;98603.69;12184942;19;20050;-84
2023/12/05 08:58:48;;;;;;;1.60;0.85;;;;;;;8.50;100.00;98587.16;12212220;19;20074;-85
2023/12/05 09:02:50;;;;;;;1.07;0.80;;;;;;;8.38;100.00;98594.75;12213348;19;20009;-84
2023/12/05 09:06:52;;;;;;;1.85;1.02;;;;;;;8.41;100.00;98592.34;12185602;19;20046;-83
2023/12/05 09:10:57;;;;;;;2.57;1.10;;;;;;;8.31;100.00;98591.44;12205319;19;20003;-83
2023/12/05 09:14:59;;;;;;;1.55;0.77;;;;;;;8.28;100.00;98600.19;12203407;19;20019;-85
2023/12/05 09:19:01;;;;;;;2.60;1.00;;;;;;;8.15;100.00;98612.44;12181045;19;20006;-86
2023/12/05 09:23:03;;;;;;;3.00;1.00;;;;;;;8.20;100.00;98618.78;12205993;19;20010;-84
2023/12/05 09:27:06;;;;;;;5.07;0.90;;;;;;;8.21;100.00;98623.19;12206180;19;20011;-84
2023/12/05 09:31:07;;;;;;;3.13;0.85;;;;;;;8.33;100.00;98627.66;12183800;19;20014;-83
2023/12/05 09:35:09;;;;;;;2.67;1.02;;;;;;;8.32;100.00;98635.06;12203065;19;20338;-83
2023/12/05 09:39:12;;;;;;;2.20;0.90;;;;;;;8.15;100.00;98613.28;12204724;19;20003;-81
2023/12/05 09:43:16;;;;;;;2.05;0.80;;;;;;;8.29;100.00;98632.03;12190167;19;20003;-85
2023/12/05 09:47:20;;;;;;;2.28;0.65;;;;;;;8.34;100.00;98640.31;12218063;19;20006;-83
2023/12/05 09:51:23;;;;;;;2.17;0.70;;;;;;;8.27;100.00;98642.44;12224676;19;20006;-82
2023/12/05 09:55:26;;;;;;;3.97;1.10;;;;;;;8.28;100.00;98650.41;12195631;19;20010;-85
2023/12/05 09:59:28;;;;;;;2.83;0.80;;;;;;;8.25;100.00;98641.88;12203458;19;20102;-83
2023/12/05 10:03:34;;;;;;;2.78;0.85;;;;;;;8.24;100.00;98643.81;12184288;19;20010;-85
2023/12/05 10:07:37;;;;;;;3.05;1.42;;;;;;;8.33;100.00;98642.22;12207920;19;20014;-83
2023/12/05 10:11:39;;;;;;;;;;;;;;;8.26;100.00;98630.63;12205044;19;20434;-85
2023/12/05 10:15:43;;;;;;;1.67;0.93;;;;;;;8.17;100.00;98629.47;12183952;19;19910;-84
2023/12/05 10:19:45;;;;;;;3.45;1.33;;;;;;;8.23;100.00;98634.72;12207050;19;20007;-84
2023/12/05 10:23:48;;;;;;;2.40;1.15;;;;;;;8.21;100.00;98634.19;12214716;19;20110;-84
2023/12/05 10:28:06;;;;;;;3.05;1.73;;;;;;;8.20;100.00;98638.00;12224119;19;20002;-82
2023/12/05 10:32:11;;;;;;;8.32;1.92;;;;;;;8.28;100.00;98633.13;12266701;19;20014;-82
2023/12/05 10:36:14;;;;;;;4.07;1.45;;;;;;;8.28;100.00;98639.44;12256365;19;20028;-83
2023/12/05 10:40:20;;;;;;;4.05;1.15;;;;;;;8.23;100.00;98642.97;12186267;19;20058;-85
2023/12/05 10:44:26;;;;;;;2.17;0.90;;;;;;;8.18;100.00;98647.59;12212657;19;20027;-83
2023/12/05 10:48:34;;;;;;;2.72;1.15;;;;;;;8.12;100.00;98644.00;12220715;19;20011;-84
2023/12/05 10:52:37;;;;;;;1.73;0.73;;;;;;;8.09;100.00;98641.78;12197659;19;20342;-83
2023/12/05 10:56:54;;;;;;;1.65;0.85;;;;;;;8.43;100.00;98641.50;12212931;19;20018;-83
2023/12/05 11:00:57;;;;;;;2.28;0.95;;;;;;;8.60;100.00;98638.59;12199583;19;20402;-83
2023/12/05 11:05:03;;;;;;;8.25;1.08;;;;;;;8.47;100.00;98639.03;12214305;19;20011;-84
2023/12/05 11:09:05;;;;;;;4.47;1.42;;;;;;;8.48;100.00;98638.78;12165826;19;20004;-83
2023/12/05 11:13:12;;;;;;;4.22;1.10;;;;;;;8.49;100.00;98634.94;12203701;19;20099;-83
2023/12/05 11:17:21;;;;;;;4.38;0.90;;;;;;;8.51;100.00;98629.19;12213504;19;20031;-83
2023/12/05 11:21:45;;;;;;;3.22;1.08;;;;;;;8.27;100.00;98635.06;12191569;19;20459;-83
2023/12/05 11:25:58;;;;;;;1.83;0.88;;;;;;;8.20;100.00;98632.50;12216355;19;20006;-84
2023/12/05 11:30:26;;;;;;;3.85;1.20;;;;;;;8.17;100.00;98634.97;12199985;19;20002;-83
2023/12/05 11:34:58;;;;;;;1.85;0.95;;;;;;;8.19;100.00;98638.28;12260866;19;20030;-85
2023/12/05 11:39:03;;;;;;;3.03;1.20;;;;;;;8.20;100.00;98638.00;12197289;19;20031;-83
2023/12/05 11:43:11;;;;;;;6.65;1.85;;;;;;;8.16;100.00;98628.66;12225720;19;20018;-85
2023/12/05 11:47:14;;;;;;;3.28;1.20;;;;;;;8.26;100.00;98638.03;12217307;19;20046;-85
2023/12/05 11:51:17;;;;;;;3.92;1.10;;;;;;;8.22;100.00;98635.00;12203349;19;20019;-85
2023/12/05 11:55:22;;;;;;;4.35;1.98;;;;;;;8.28;100.00;98619.41;12242839;19;20009;-83
2023/12/05 11:59:25;;;;;;;4.13;1.52;;;;;;;8.17;100.00;98634.97;12250667;19;20014;-85
2023/12/05 12:03:48;;;;;;;1.73;1.10;;;;;;;8.05;100.00;98635.13;12197424;19;20011;-85
2023/12/05 12:07:58;;;;;;;3.88;1.20;;;;;;;7.86;100.00;98626.47;12223957;19;20031;-87
2023/12/05 12:12:00;;;;;;;5.68;1.42;;;;;;;7.92;100.00;98630.94;12202181;19;20074;-84
2023/12/05 12:16:03;;;;;;;8.02;2.55;;;;;;;7.97;100.00;98624.63;12222062;19;20010;-83
2023/12/05 12:20:05;;;;;;;8.63;1.50;;;;;;;8.00;100.00;98621.38;12222640;19;20425;-85
2023/12/05 12:24:19;;;;;;;1.77;1.02;;;;;;;8.09;100.00;98622.56;12194903;19;20795;-84
2023/12/05 12:28:29;;;;;;;2.20;1.35;;;;;;;8.21;100.00;98625.94;12219420;19;20014;-84
2023/12/05 12:32:30;;;;;;;3.30;1.20;;;;;;;8.28;100.00;98627.63;12220333;19;20038;-84
2023/12/05 12:36:34;;;;;;;;;;;;;;;8.26;100.00;98618.84;12197997;19;20018;-85
2023/12/05 12:40:36;;;;;;;4.57;1.20;;;;;;;8.41;100.00;98618.97;12218916;19;19910;-83
2023/12/05 12:44:38;;;;;;;4.47;1.10;;;;;;;8.42;100.00;98621.44;12214477;19;20095;-84
2023/12/05 12:48:42;;;;;;;2.97;1.25;;;;;;;8.40;100.00;98615.38;12196937;19;21271;-84
2023/12/05 12:52:44;;;;;;;3.50;1.35;;;;;;;8.34;100.00;98615.59;12212912;19;20010;-85
2023/12/05 12:56:50;;;;;;;2.80;0.90;;;;;;;8.33;100.00;98616.66;12193393;19;20029;-84
2023/12/05 13:00:53;;;;;;;1.45;1.00;;;;;;;8.20;100.00;98616.03;12207135;19;20010;-83
2023/12/05 13:04:56;;;;;;;1.35;0.82;;;;;;;8.21;100.00;98622.38;12206378;19;20491;-84
2023/12/05 13:08:59;;;;;;;2.70;1.38;;;;;;;8.25;100.00;98633.66;12196543;19;20015;-85
2023/12/05 13:13:04;;;;;;;0.77;0.67;;;;;;;8.34;100.00;98643.03;12210093;19;20034;-83
2023/12/05 13:17:07;;;;;;;2.15;0.68;;;;;;;8.30;100.00;98634.53;12207633;19;20010;-82
2023/12/05 13:21:10;;;;;;;3.13;1.05;;;;;;;8.32;100.00;98636.97;12191248;19;20022;-84
2023/12/05 13:25:13;;;;;;;2.65;1.33;;;;;;;8.19;100.00;98630.03;12211782;19;20046;-87
2023/12/05 13:29:17;;;;;;;2.50;0.95;;;;;;;8.09;100.00;98630.81;12215555;19;20010;-85
2023/12/05 13:33:24;;;;;;;1.60;0.80;;;;;;;8.05;100.00;98639.81;12193636;19;20014;-83
2023/12/05 13:37:26;;;;;;;3.60;1.05;;;;;;;7.95;100.00;98646.03;12218657;19;20030;-85
2023/12/05 13:41:28;;;;;;;4.00;1.00;;;;;;;7.85;100.00;98648.69;12210794;19;20362;-83
2023/12/05 13:45:29;;;;;;;3.50;0.90;;;;;;;7.77;100.00;98650.00;12183708;19;20010;-84
2023/12/05 13:49:31;;;;;;;3.17;1.20;;;;;;;7.57;100.00;98666.25;12202529;19;20073;-84
2023/12/05 13:53:34;;;;;;;;;;;;;;;7.32;100.00;98659.41;12198408;19;20736;-85
2023/12/05 13:57:37;;;;;;;1.60;0.87;;;;;;;7.25;100.00;98667.78;12177675;19;19914;-84
2023/12/05 14:01:42;;;;;;;1.27;0.73;;;;;;;7.14;100.00;98668.78;12198091;19;20002;-83
2023/12/05 14:05:43;;;;;;;2.50;0.85;;;;;;;7.03;100.00;98672.47;12195519;19;20018;-84
2023/12/05 14:09:48;;;;;;;1.85;0.75;;;;;;;6.99;100.00;98685.00;12175444;19;20014;-81
2023/12/05 14:13:49;;;;;;;0.90;0.50;;;;;;;6.78;100.00;98682.00;12196147;19;20347;-82
2023/12/05 14:17:53;;;;;;;1.77;0.90;;;;;;;6.80;100.00;98679.84;12179293;19;20009;-83
2023/12/05 14:21:55;;;;;;;3.30;0.90;;;;;;;6.71;100.00;98681.34;12198800;19;20420;-83
2023/12/05 14:25:58;;;;;;;2.50;0.85;;;;;;;6.66;100.00;98678.53;12201420;19;20010;-82
2023/12/05 14:30:04;;;;;;;2.15;0.88;;;;;;;6.57;100.00;98683.63;12179382;19;20003;-83
2023/12/05 14:34:11;;;;;;;2.63;1.13;;;;;;;6.53;100.00;98695.31;12201997;19;20010;-82
2023/12/05 14:38:18;;;;;;;3.30;1.17;;;;;;;6.49;100.00;98692.25;12203703;19;20466;-84
2023/12/05 14:42:21;;;;;;;4.03;1.30;;;;;;;6.44;100.00;98688.63;12183118;19;20002;-83
2023/12/05 14:46:22;;;;;;;1.38;0.80;;;;;;;6.35;100.00;98701.88;12207504;19;21056;-82
2023/12/05 14:50:26;;;;;;;2.05;1.35;;;;;;;6.31;100.00;98703.47;12208484;19;20019;-83
2023/12/05 14:54:29;;;;;;;7.13;1.40;;;;;;;6.31;100.00;98709.78;12183697;19;20079;-83
2023/12/05 14:58:34;;;;;;;3.55;1.00;;;;;;;6.25;100.00;98713.50;12206105;19;20065;-84
2023/12/05 15:02:36;;;;;;;2.38;1.00;;;;;;;6.17;100.00;98716.66;12208101;19;20003;-84
2023/12/05 15:06:43;;;;;;;2.22;1.15;;;;;;;6.07;100.00;98722.78;12184010;19;20023;-82
2023/12/05 15:10:45;;;;;;;3.73;1.03;;;;;;;6.03;100.00;98727.06;12210867;19;20074;-82
2023/12/05 15:14:47;;;;;;;4.00;1.00;;;;;;;6.01;100.00;98731.97;12220041;19;20015;-82
2023/12/05 15:18:50;;;;;;;2.53;1.15;;;;;;;5.96;100.00;98723.66;12250822;19;20066;-82
2023/12/05 15:22:53;;;;;;;7.63;1.40;;;;;;;5.93;100.00;98725.00;12211767;19;20015;-83
2023/12/05 15:26:55;;;;;;;1.47;1.10;;;;;;;5.96;100.00;98725.59;12180802;19;20014;-82
2023/12/05 15:30:57;;;;;;;2.90;1.20;;;;;;;5.91;100.00;98734.47;12217781;19;20353;-83
2023/12/05 15:34:58;;;;;;;5.32;1.77;;;;;;;5.91;100.00;98735.31;12212828;19;20030;-84
2023/12/05 15:39:01;;;;;;;3.67;1.30;;;;;;;5.92;100.00;98734.25;12198265;19;20009;-82
2023/12/05 15:43:04;;;;;;;3.23;1.17;;;;;;;5.94;100.00;98744.94;12219992;19;20268;-83
2023/12/05 15:47:07;;;;;;;3.15;1.30;;;;;;;5.89;100.00;98742.94;12219374;19;20007;-82
2023/12/05 15:51:08;;;;;;;2.53;1.07;;;;;;;5.78;100.00;98745.72;12193875;19;20016;-84
2023/12/05 15:55:12;;;;;;;2.28;1.30;;;;;;;5.75;100.00;98747.03;12217192;19;20491;-84
2023/12/05 15:59:16;;;;;;;2.13;1.33;;;;;;;5.75;100.00;98752.50;12215663;19;20003;-84
2023/12/05 16:03:20;;;;;;;4.80;1.42;;;;;;;5.70;100.00;98750.50;12193575;19;20394;-84
2023/12/05 16:07:25;;;;;;;7.55;1.55;;;;;;;5.65;100.00;98763.22;12214323;19;20007;-84
2023/12/05 16:11:28;;;;;;;2.63;1.30;;;;;;;5.59;100.00;98765.06;12220404;19;20006;-84
2023/12/05 16:15:32;;;;;;;2.80;1.35;;;;;;;5.58;100.00;98757.09;12200061;19;20070;-83
2023/12/05 16:19:37;;;;;;;2.95;1.63;;;;;;;5.59;100.00;98765.06;12221072;19;20021;-85
2023/12/05 16:23:40;;;;;;;3.08;1.45;;;;;;;5.55;100.00;98768.50;12216708;19;20103;-84
2023/12/05 16:27:43;;;;;;;2.45;0.98;;;;;;;5.47;100.00;98756.91;12182225;19;20006;-82
2023/12/05 16:31:44;;;;;;;2.28;1.08;;;;;;;5.46;100.00;98768.88;12204640;19;20078;-81
2023/12/05 16:35:47;;;;;;;2.97;1.45;;;;;;;5.43;100.00;98763.06;12202267;19;20027;-82
2023/12/05 16:39:51;;;;;;;2.17;1.10;;;;;;;5.38;100.00;98768.44;12208214;19;20011;-81
2023/12/05 16:43:52;;;;;;;2.17;0.73;;;;;;;5.30;100.00;98772.38;12209304;19;20606;-84
2023/12/05 16:47:58;;;;;;;2.65;1.20;;;;;;;5.27;100.00;98769.31;12184333;19;20014;-83
2023/12/05 16:52:01;;;;;;;4.10;1.20;;;;;;;5.19;100.00;98776.78;12209811;19;20046;-84
2023/12/05 16:56:03;;;;;;;2.47;1.10;;;;;;;5.19;100.00;98775.97;12211434;19;20006;-81
2023/12/05 17:00:08;;;;;;;;;;;;;;;5.13;100.00;98782.38;12193945;19;20002;-83
2023/12/05 17:04:15;;;;;;;1.42;0.80;;;;;;;5.06;100.00;98785.25;12213858;19;21095;-82
2023/12/05 17:08:17;;;;;;;2.40;0.90;;;;;;;5.09;100.00;98781.22;12214252;19;20014;-82
2023/12/05 17:12:21;;;;;;;1.75;0.93;;;;;;;5.03;100.00;98788.47;12191430;19;20002;-83
2023/12/05 17:16:30;;;;;;;3.28;0.90;;;;;;;5.02;100.00;98782.13;12213691;19;20018;-80
2023/12/05 17:20:34;;;;;;;2.20;1.00;;;;;;;4.99;100.00;98799.00;12213792;19;20054;-83
2023/12/05 17:24:36;;;;;;;2.30;1.02;;;;;;;4.97;100.00;98803.88;12190615;19;20015;-82
2023/12/05 17:28:38;;;;;;;1.40;0.80;;;;;;;4.99;100.00;98806.38;12210445;19;20006;-83
2023/12/05 17:32:40;;;;;;;2.00;1.00;;;;;;;4.97;100.00;98805.78;12214919;19;20089;-82
2023/12/05 17:36:43;;;;;;;1.95;1.30;;;;;;;4.91;100.00;98818.50;12196406;19;20014;-82
2023/12/05 17:40:44;;;;;;;2.30;0.90;;;;;;;4.87;100.00;98817.28;12227452;19;20725;-82
2023/12/05 17:44:54;;;;;;;1.70;1.10;;;;;;;4.89;100.00;98814.34;12204989;19;20028;-83
2023/12/05 17:48:59;;;;;;;2.80;1.30;;;;;;;4.84;100.00;98817.75;12220060;19;20017;-84
2023/12/05 17:53:03;;;;;;;2.45;1.08;;;;;;;4.84;100.00;98828.69;12213213;19;20018;-83
2023/12/05 17:57:05;;;;;;;;;;;;;;;4.88;100.00;98831.75;12194731;19;20017;-83
2023/12/05 18:01:07;;;;;;;3.33;1.15;;;;;;;4.85;100.00;98833.09;12215237;19;19915;-82
2023/12/05 18:05:09;;;;;;;3.03;1.42;;;;;;;4.87;100.00;98838.28;12208501;19;20011;-82
2023/12/05 18:09:13;;;;;;;2.45;1.13;;;;;;;4.74;100.00;98828.44;12189488;19;20018;-82
2023/12/05 18:13:18;;;;;;;2.42;0.77;;;;;;;4.73;100.00;98827.63;12208843;19;20014;-82
2023/12/05 18:17:20;;;;;;;2.70;1.33;;;;;;;4.78;100.00;98840.53;12210671;19;20022;-79
2023/12/05 18:21:23;;;;;;;;;;;;;;;4.76;100.00;98834.50;12192733;19;20407;-81
2023/12/05 18:25:24;;;;;;;1.65;0.93;;;;;;;4.75;100.00;98841.84;12207432;19;19930;-81
2023/12/05 18:29:26;;;;;;;2.20;1.23;;;;;;;4.72;100.00;98836.03;12206301;19;20006;-79
2023/12/05 18:33:28;;;;;;;2.25;1.10;;;;;;;4.69;100.00;98841.97;12182734;19;20022;-81
2023/12/05 18:37:30;;;;;;;2.90;1.30;;;;;;;4.63;100.00;98843.72;12231542;19;20042;-81
2023/12/05 18:41:32;;;;;;;3.75;1.38;;;;;;;4.55;100.00;98850.38;12212398;19;20003;-83
2023/12/05 18:45:33;;;;;;;4.03;1.52;;;;;;;4.51;100.00;98854.63;12183929;19;20362;-82
2023/12/05 18:49:35;;;;;;;1.38;1.00;;;;;;;4.53;100.00;98849.78;12209712;19;20060;-82
2023/12/05 18:53:37;;;;;;;2.30;0.97;;;;;;;4.52;100.00;98859.03;12204172;19;20078;-81
2023/12/05 18:57:42;;;;;;;2.28;1.05;;;;;;;4.47;100.00;98858.06;12181976;19;20256;-82